Time;durP1;ratioP1;P1;durP2;ratioP2;P2;SDS_P1;SDS_P2;PMS_P1;PMS_P2;Temp;Humidity;BMP_temperature;BMP_pressure;BME280_temperature;BME280_humidity;BME280_pressure;Samples;Min_cycle;Max_cycle;Signal;HPM_P1;HPM_P2
2021/11/08 00:00:46;;;;;;;0.20;0.20;;;9.60;99.90;;;;;;4997989;28;20177;-66
2021/11/08 00:03:16;;;;;;;3.13;0.70;;;9.50;99.90;;;;;;4997710;28;20217;-66
2021/11/08 00:05:44;;;;;;;0.50;0.50;;;9.50;99.90;;;;;;4997742;28;20171;-65
2021/11/08 00:08:10;;;;;;;1.48;0.63;;;9.50;99.90;;;;;;4997615;28;20201;-65
2021/11/08 00:10:36;;;;;;;0.70;0.30;;;9.50;99.90;;;;;;4997385;28;20194;-64
2021/11/08 00:13:05;;;;;;;1.75;0.50;;;9.50;99.90;;;;;;4998175;28;20221;-65
2021/11/08 00:15:52;;;;;;;3.47;0.55;;;9.50;99.90;;;;;;4997952;28;20189;-65
2021/11/08 00:18:32;;;;;;;0.30;0.20;;;9.40;99.90;;;;;;4997440;28;20204;-66
2021/11/08 00:20:58;;;;;;;3.38;3.17;;;9.50;99.90;;;;;;4997199;28;20178;-64
2021/11/08 00:23:26;;;;;;;0.60;0.50;;;9.40;99.90;;;;;;4996961;28;20224;-66
2021/11/08 00:25:52;;;;;;;0.20;0.20;;;9.50;99.90;;;;;;4997070;28;20182;-65
2021/11/08 00:28:19;;;;;;;0.77;0.43;;;9.40;99.90;;;;;;4996899;28;20189;-66
2021/11/08 00:30:45;;;;;;;0.30;0.20;;;9.40;99.90;;;;;;4996959;28;20210;-66
2021/11/08 00:33:16;;;;;;;0.65;0.20;;;9.30;99.90;;;;;;4995762;28;20624;-64
2021/11/08 00:35:44;;;;;;;0.30;0.25;;;9.20;99.90;;;;;;4997997;28;20522;-66
2021/11/08 00:38:11;;;;;;;0.50;0.43;;;9.20;99.90;;;;;;4995880;28;20612;-66
2021/11/08 00:40:37;;;;;;;0.20;0.20;;;9.20;99.90;;;;;;4996976;28;20276;-65
2021/11/08 00:43:03;;;;;;;0.50;0.45;;;9.20;99.90;;;;;;4997077;28;20202;-64
2021/11/08 00:45:29;;;;;;;1.95;0.45;;;9.20;99.90;;;;;;4997438;28;20183;-64
2021/11/08 00:47:56;;;;;;;2.00;1.90;;;9.30;99.90;;;;;;4997333;28;20339;-65
2021/11/08 00:50:22;;;;;;;5.38;0.88;;;9.20;99.90;;;;;;4997521;28;20678;-64
2021/11/08 00:52:48;;;;;;;5.18;0.95;;;9.20;99.90;;;;;;4996027;28;20551;-64
2021/11/08 00:55:15;;;;;;;4.35;0.63;;;9.20;99.90;;;;;;4997292;28;20201;-64
2021/11/08 00:57:43;;;;;;;0.40;0.30;;;9.30;99.90;;;;;;4996884;28;20679;-64
2021/11/08 01:00:11;;;;;;;1.58;0.30;;;9.30;99.90;;;;;;4996346;28;20197;-64
2021/11/08 01:02:37;;;;;;;3.53;0.75;;;9.20;99.90;;;;;;4995999;28;20628;-65
2021/11/08 01:05:05;;;;;;;2.50;0.85;;;9.30;99.90;;;;;;4996620;28;20193;-65
2021/11/08 01:07:31;;;;;;;0.98;0.95;;;9.30;99.90;;;;;;4996289;28;20185;-65
2021/11/08 01:09:56;;;;;;;0.30;0.30;;;9.30;99.90;;;;;;4996321;28;20256;-65
2021/11/08 01:12:25;;;;;;;0.30;0.20;;;9.30;99.90;;;;;;4996210;28;20527;-65
2021/11/08 01:14:51;;;;;;;0.20;0.10;;;9.40;99.90;;;;;;4996220;28;20170;-65
2021/11/08 01:17:17;;;;;;;1.40;0.80;;;9.40;99.90;;;;;;4996187;28;20245;-64
2021/11/08 01:19:43;;;;;;;1.03;0.93;;;9.40;99.90;;;;;;4995823;28;20194;-64
2021/11/08 01:22:20;;;;;;;0.40;0.22;;;9.30;99.90;;;;;;4996016;28;20472;-64
2021/11/08 01:24:55;;;;;;;2.58;2.05;;;9.40;99.90;;;;;;4995850;28;20219;-64
2021/11/08 01:27:36;;;;;;;0.95;0.85;;;9.40;99.90;;;;;;4995911;28;20268;-64
2021/11/08 01:30:09;;;;;;;2.47;0.50;;;9.40;99.90;;;;;;4994946;28;20182;-65
2021/11/08 01:32:35;;;;;;;1.25;0.30;;;9.40;99.90;;;;;;4995845;28;20240;-65
2021/11/08 01:35:01;;;;;;;0.60;0.60;;;9.30;99.90;;;;;;4996310;28;20179;-65
2021/11/08 01:37:28;;;;;;;1.33;1.23;;;9.30;99.90;;;;;;4996229;28;20563;-65
2021/11/08 01:39:54;;;;;;;0.30;0.20;;;9.30;99.90;;;;;;4995694;28;20472;-65
2021/11/08 01:42:20;;;;;;;0.43;0.40;;;9.30;99.90;;;;;;4995847;28;20240;-65
2021/11/08 01:44:46;;;;;;;0.30;0.20;;;9.30;99.90;;;;;;4995990;28;20205;-65
2021/11/08 01:47:12;;;;;;;1.25;1.25;;;9.30;99.90;;;;;;4995903;28;20422;-65
2021/11/08 01:49:40;;;;;;;1.23;0.60;;;9.30;99.90;;;;;;4995869;28;20185;-65
2021/11/08 01:52:07;;;;;;;0.20;0.20;;;9.20;99.90;;;;;;4994847;28;20830;-65
2021/11/08 01:54:34;;;;;;;0.20;0.10;;;9.20;99.90;;;;;;4994670;28;20208;-64
2021/11/08 01:57:00;;;;;;;0.30;0.30;;;9.30;99.90;;;;;;4995323;28;20280;-63
2021/11/08 01:59:26;;;;;;;2.30;0.30;;;9.30;99.90;;;;;;4995216;28;20632;-64
2021/11/08 02:01:54;;;;;;;3.03;0.85;;;9.20;99.90;;;;;;4995332;28;20243;-65
2021/11/08 02:04:20;;;;;;;0.95;0.95;;;9.20;99.90;;;;;;4995683;28;20260;-63
2021/11/08 02:06:46;;;;;;;0.68;0.68;;;9.20;99.90;;;;;;4995285;28;20678;-65
2021/11/08 02:09:13;;;;;;;0.30;0.20;;;9.10;99.90;;;;;;4995879;28;20285;-64
2021/11/08 02:11:38;;;;;;;0.20;0.20;;;9.10;99.90;;;;;;4996272;28;20175;-64
2021/11/08 02:14:04;;;;;;;0.30;0.30;;;9.20;99.90;;;;;;4996322;28;20628;-65
2021/11/08 02:16:30;;;;;;;0.57;0.57;;;9.20;99.90;;;;;;4996038;28;20675;-65
2021/11/08 02:18:58;;;;;;;0.30;0.17;;;9.20;99.90;;;;;;4995194;28;20236;-64
2021/11/08 02:21:25;;;;;;;0.30;0.20;;;9.20;99.90;;;;;;4995228;28;20520;-64
2021/11/08 02:23:52;;;;;;;1.33;0.57;;;9.10;99.90;;;;;;4995122;28;20217;-65
2021/11/08 02:26:18;;;;;;;0.30;0.20;;;9.10;99.90;;;;;;4995319;28;20197;-65
2021/11/08 02:28:50;;;;;;;6.60;0.57;;;9.10;99.90;;;;;;4995111;28;20181;-65
2021/11/08 02:31:19;;;;;;;3.90;0.77;;;9.10;99.90;;;;;;4995535;28;20436;-65
2021/11/08 02:33:46;;;;;;;1.00;0.25;;;9.20;99.90;;;;;;4994590;28;20498;-65
2021/11/08 02:36:12;;;;;;;2.78;1.33;;;9.20;99.90;;;;;;4994995;28;20179;-65
2021/11/08 02:38:47;;;;;;;0.20;0.20;;;9.20;99.90;;;;;;4994702;28;20681;-64
2021/11/08 02:41:14;;;;;;;0.90;0.82;;;9.20;99.90;;;;;;4993893;28;20292;-65
2021/11/08 02:43:40;;;;;;;0.20;0.10;;;9.20;99.90;;;;;;4994605;28;20206;-64
2021/11/08 02:46:12;;;;;;;0.20;0.20;;;9.30;99.90;;;;;;4994659;28;20182;-65
2021/11/08 02:48:41;;;;;;;0.30;0.30;;;9.30;99.90;;;;;;4994523;28;20270;-65
2021/11/08 02:51:11;;;;;;;0.35;0.30;;;9.30;99.90;;;;;;4993597;28;20182;-65
2021/11/08 02:53:38;;;;;;;0.60;0.30;;;9.40;99.90;;;;;;4994746;28;20178;-65
2021/11/08 02:56:06;;;;;;;0.82;0.20;;;9.30;99.90;;;;;;4994685;28;20209;-63
2021/11/08 02:58:32;;;;;;;12.48;1.85;;;9.30;99.90;;;;;;4994479;28;20177;-65
2021/11/08 03:00:58;;;;;;;0.20;0.15;;;9.20;99.90;;;;;;4994411;28;20192;-65
2021/11/08 03:03:33;;;;;;;0.20;0.10;;;9.20;99.90;;;;;;4994534;28;20225;-64
2021/11/08 03:06:04;;;;;;;0.35;0.25;;;9.30;99.90;;;;;;4993640;28;20177;-65
2021/11/08 03:08:30;;;;;;;0.80;0.65;;;9.30;99.90;;;;;;4994150;28;20623;-65
2021/11/08 03:10:58;;;;;;;0.33;0.33;;;9.20;99.90;;;;;;4994408;28;20617;-65
2021/11/08 03:13:25;;;;;;;0.57;0.57;;;9.10;99.90;;;;;;4994451;28;20214;-64
2021/11/08 03:18:33;;;;;;;0.30;0.30;;;9.10;99.90;;;;;;4994296;28;20512;-64
2021/11/08 03:20:59;;;;;;;0.68;0.68;;;9.10;99.90;;;;;;4994198;28;20194;-65
2021/11/08 03:23:26;;;;;;;0.20;0.20;;;9.20;99.90;;;;;;4994078;28;20333;-65
2021/11/08 03:26:05;;;;;;;0.30;0.22;;;9.20;99.90;;;;;;4994633;28;20269;-64
2021/11/08 03:28:31;;;;;;;0.30;0.25;;;9.30;99.90;;;;;;4998075;28;20631;-64
2021/11/08 03:30:57;;;;;;;2.90;2.07;;;9.40;99.90;;;;;;4998633;28;20179;-65
2021/11/08 03:33:24;;;;;;;2.70;0.90;;;9.30;99.90;;;;;;4998570;28;20192;-65
2021/11/08 03:35:51;;;;;;;0.20;0.10;;;9.20;99.90;;;;;;4998666;28;20497;-64
2021/11/08 03:38:16;;;;;;;0.20;0.20;;;9.20;99.90;;;;;;4998299;28;20194;-65
2021/11/08 03:40:45;;;;;;;0.33;0.33;;;9.20;99.90;;;;;;4998486;28;20236;-65
2021/11/08 03:43:15;;;;;;;0.73;0.20;;;9.20;99.90;;;;;;4998419;28;20524;-65
2021/11/08 03:45:42;;;;;;;0.70;0.63;;;9.20;99.90;;;;;;4997307;28;20189;-65
2021/11/08 03:48:11;;;;;;;0.20;0.20;;;9.10;99.90;;;;;;4997940;28;20198;-64
2021/11/08 03:50:36;;;;;;;0.20;0.15;;;9.20;99.90;;;;;;4998065;28;20179;-64
2021/11/08 03:53:03;;;;;;;14.13;0.93;;;9.20;99.90;;;;;;4998133;28;20201;-64
2021/11/08 03:55:29;;;;;;;0.20;0.20;;;9.20;99.90;;;;;;4998507;28;20183;-63
2021/11/08 03:57:56;;;;;;;0.20;0.20;;;9.10;99.90;;;;;;4998247;28;20558;-64
2021/11/08 04:00:25;;;;;;;2.70;0.52;;;9.00;99.90;;;;;;4998226;28;20569;-63
2021/11/08 04:02:51;;;;;;;0.60;0.30;;;9.00;99.90;;;;;;4998454;28;20186;-64
2021/11/08 04:05:19;;;;;;;0.85;0.68;;;9.00;99.90;;;;;;4998052;28;20191;-64
2021/11/08 04:07:45;;;;;;;4.88;2.05;;;9.10;99.90;;;;;;4998015;28;20179;-63
2021/11/08 04:10:12;;;;;;;0.20;0.20;;;9.00;99.90;;;;;;4997868;28;20181;-63
2021/11/08 04:12:39;;;;;;;0.20;0.20;;;9.00;99.90;;;;;;4997828;28;20634;-63
2021/11/08 04:15:08;;;;;;;1.58;1.50;;;9.00;99.90;;;;;;4997912;28;20194;-63
2021/11/08 04:17:40;;;;;;;0.20;0.10;;;9.10;99.90;;;;;;4997855;28;20491;-65
2021/11/08 04:20:07;;;;;;;0.28;0.20;;;9.00;99.90;;;;;;4997683;28;20247;-65
2021/11/08 04:22:32;;;;;;;0.20;0.10;;;8.90;99.90;;;;;;4997855;28;20225;-64
2021/11/08 04:24:59;;;;;;;0.20;0.20;;;8.80;99.90;;;;;;4997785;28;20221;-64
2021/11/08 04:27:24;;;;;;;0.50;0.30;;;8.80;99.90;;;;;;4997723;28;20175;-64
2021/11/08 04:29:50;;;;;;;5.50;0.60;;;8.80;99.90;;;;;;4997380;28;20181;-64
2021/11/08 04:32:16;;;;;;;0.30;0.20;;;8.80;99.90;;;;;;4997374;28;20178;-64
2021/11/08 04:34:50;;;;;;;2.28;0.93;;;8.70;99.90;;;;;;4997480;28;20332;-65
2021/11/08 04:45:25;;;;;;;0.30;0.30;;;8.90;99.90;;;;;;4997236;28;20244;-64
2021/11/08 04:50:45;;;;;;;1.15;0.50;;;9.00;99.90;;;;;;4997217;28;20276;-64
2021/11/08 04:53:16;;;;;;;0.20;0.20;;;8.90;99.90;;;;;;4997235;28;20193;-64
2021/11/08 05:23:20;;;;;;;0.50;0.50;;;9.00;99.90;;;;;;4996180;28;20556;-65
2021/11/08 05:28:39;;;;;;;0.30;0.30;;;8.80;99.90;;;;;;4995902;28;20177;-65
2021/11/08 05:31:05;;;;;;;0.20;0.20;;;8.70;99.90;;;;;;4995928;28;20174;-65
2021/11/08 05:33:31;;;;;;;2.38;2.28;;;8.70;99.90;;;;;;4995858;28;20190;-64
2021/11/08 05:35:56;;;;;;;1.53;0.60;;;8.70;99.90;;;;;;4995509;28;20277;-63
2021/11/08 05:38:22;;;;;;;3.30;0.87;;;8.70;99.90;;;;;;4995474;28;20528;-63
2021/11/08 05:40:47;;;;;;;0.20;0.10;;;8.60;99.90;;;;;;4995850;28;20206;-63
2021/11/08 05:43:13;;;;;;;0.30;0.30;;;8.70;99.90;;;;;;4995045;28;20205;-64
2021/11/08 05:45:41;;;;;;;0.20;0.20;;;8.70;99.90;;;;;;4996398;28;20175;-63
2021/11/08 05:48:08;;;;;;;0.20;0.20;;;8.70;99.90;;;;;;4996363;28;20183;-63
2021/11/08 05:50:37;;;;;;;0.20;0.20;;;8.70;99.90;;;;;;4996068;28;20184;-63
2021/11/08 05:53:05;;;;;;;0.20;0.20;;;8.80;99.90;;;;;;4995877;28;20187;-65
2021/11/08 05:55:41;;;;;;;0.20;0.10;;;8.90;99.90;;;;;;4995430;28;20240;-65
2021/11/08 05:58:18;;;;;;;0.40;0.30;;;8.80;99.90;;;;;;4994129;28;20187;-65
2021/11/08 06:01:56;;;;;;;0.20;0.20;;;8.60;99.90;;;;;;4995404;28;20186;-65
2021/11/08 06:50:12;;;;;;;0.30;0.30;;;8.50;99.90;;;;;;5014326;28;20181;-63
2021/11/08 06:52:37;;;;;;;0.60;0.60;;;8.50;99.90;;;;;;5014907;28;20181;-63
2021/11/08 06:55:06;;;;;;;2.93;0.37;;;8.50;99.90;;;;;;5014196;28;20174;-65
2021/11/08 06:57:44;;;;;;;0.47;0.47;;;8.40;99.90;;;;;;5014278;28;20733;-65
2021/11/08 07:00:10;;;;;;;1.00;0.63;;;8.40;99.90;;;;;;5014046;28;20227;-66
2021/11/08 07:02:35;;;;;;;1.60;1.33;;;8.40;99.90;;;;;;5013452;28;20206;-65
2021/11/08 07:05:01;;;;;;;0.20;0.20;;;8.30;99.90;;;;;;5006406;28;20471;-65
2021/11/08 07:07:26;;;;;;;1.33;1.23;;;8.20;99.90;;;;;;5005118;28;20293;-64
2021/11/08 07:09:52;;;;;;;0.40;0.30;;;8.20;99.90;;;;;;5007648;28;20182;-63
2021/11/08 07:12:18;;;;;;;0.83;0.83;;;8.20;99.90;;;;;;5014161;28;20449;-65
2021/11/08 07:14:44;;;;;;;0.20;0.20;;;8.30;99.90;;;;;;5012444;28;20196;-65
2021/11/08 07:17:10;;;;;;;0.43;0.33;;;8.20;99.90;;;;;;5014107;28;20936;-64
2021/11/08 07:19:35;;;;;;;0.20;0.20;;;8.20;99.90;;;;;;5013539;28;20273;-66
2021/11/08 07:22:02;;;;;;;0.73;0.73;;;8.20;99.90;;;;;;5013589;28;20210;-66
2021/11/08 07:24:28;;;;;;;1.38;1.27;;;8.10;99.90;;;;;;5001680;28;20209;-66
2021/11/08 07:26:53;;;;;;;0.25;0.25;;;8.10;99.90;;;;;;4996565;28;20201;-66
2021/11/08 07:29:21;;;;;;;4.03;1.23;;;8.10;99.90;;;;;;5012352;28;20526;-65
2021/11/08 07:31:47;;;;;;;0.20;0.20;;;8.00;99.90;;;;;;5012965;28;20192;-66
2021/11/08 07:34:13;;;;;;;2.38;0.55;;;8.10;99.90;;;;;;5003135;28;20201;-66
2021/11/08 07:36:39;;;;;;;0.30;0.20;;;8.10;99.90;;;;;;5013236;28;20537;-66
2021/11/08 07:39:06;;;;;;;0.40;0.33;;;8.10;99.90;;;;;;5013095;28;20526;-65
2021/11/08 07:41:32;;;;;;;0.20;0.20;;;8.10;99.90;;;;;;5013026;28;20178;-64
2021/11/08 07:43:58;;;;;;;0.30;0.30;;;8.10;99.90;;;;;;5013097;28;20202;-65
2021/11/08 07:46:24;;;;;;;4.93;0.53;;;8.10;99.90;;;;;;5013102;28;20186;-68
2021/11/08 07:48:49;;;;;;;0.20;0.20;;;8.10;99.90;;;;;;5012601;28;20670;-68
2021/11/08 07:51:17;;;;;;;0.20;0.20;;;8.30;99.90;;;;;;5013762;28;20497;-65
2021/11/08 07:53:43;;;;;;;1.33;1.33;;;8.40;99.90;;;;;;4996618;28;20282;-65
2021/11/08 07:56:09;;;;;;;0.20;0.10;;;8.30;99.90;;;;;;4995865;28;20259;-65
2021/11/08 07:58:38;;;;;;;0.20;0.10;;;8.40;99.90;;;;;;4995454;28;20607;-64
2021/11/08 08:01:04;;;;;;;0.88;0.85;;;8.40;99.90;;;;;;5012189;28;20174;-64
2021/11/08 08:03:30;;;;;;;0.47;0.47;;;8.40;99.90;;;;;;5014795;28;20206;-68
2021/11/08 08:05:58;;;;;;;0.87;0.87;;;8.30;99.90;;;;;;5013010;28;20192;-67
2021/11/08 08:08:25;;;;;;;0.20;0.20;;;8.30;99.90;;;;;;5013371;28;20619;-66
2021/11/08 08:10:52;;;;;;;2.45;2.25;;;8.30;99.90;;;;;;5004572;28;20196;-64
2021/11/08 08:13:22;;;;;;;0.30;0.30;;;8.40;99.90;;;;;;5022054;28;20645;-68
2021/11/08 08:15:48;;;;;;;0.20;0.20;;;8.60;99.90;;;;;;5009815;28;20208;-66
2021/11/08 08:18:14;;;;;;;0.77;0.77;;;8.60;99.90;;;;;;5013536;28;20188;-64
2021/11/08 08:20:40;;;;;;;4.13;1.90;;;8.70;99.90;;;;;;5023435;28;20941;-65
2021/11/08 08:23:06;;;;;;;1.90;0.73;;;8.60;99.90;;;;;;5024430;28;20210;-65
2021/11/08 08:25:32;;;;;;;0.20;0.20;;;8.60;99.90;;;;;;5011019;28;20435;-65
2021/11/08 08:27:58;;;;;;;0.20;0.20;;;8.60;99.90;;;;;;5027041;28;20427;-64
2021/11/08 08:30:25;;;;;;;0.30;0.30;;;8.90;99.90;;;;;;5008897;28;20444;-67
2021/11/08 08:32:52;;;;;;;0.20;0.20;;;8.90;99.90;;;;;;5024612;28;20189;-65
2021/11/08 08:35:17;;;;;;;0.20;0.20;;;8.90;99.90;;;;;;5002568;28;20201;-65
2021/11/08 08:37:44;;;;;;;0.20;0.20;;;9.00;99.90;;;;;;5016467;28;20194;-64
2021/11/08 08:40:10;;;;;;;0.80;0.45;;;9.00;99.90;;;;;;5016235;28;20175;-64
2021/11/08 08:42:36;;;;;;;0.30;0.28;;;9.00;99.90;;;;;;5016576;28;20186;-64
2021/11/08 08:45:04;;;;;;;3.73;1.90;;;9.00;99.90;;;;;;5016930;28;20287;-64
2021/11/08 08:47:30;;;;;;;0.20;0.20;;;9.00;99.90;;;;;;5016221;28;20470;-64
2021/11/08 08:49:56;;;;;;;1.03;0.30;;;9.00;99.90;;;;;;5013133;28;20517;-66
2021/11/08 08:52:22;;;;;;;0.33;0.33;;;9.20;99.90;;;;;;5016004;28;20188;-65
2021/11/08 08:54:48;;;;;;;0.20;0.10;;;9.30;99.90;;;;;;4999245;28;20178;-65
2021/11/08 08:57:13;;;;;;;0.47;0.43;;;9.20;99.90;;;;;;5016746;28;20182;-64
2021/11/08 08:59:40;;;;;;;5.27;0.67;;;9.10;99.90;;;;;;5015969;28;20185;-64
2021/11/08 09:02:06;;;;;;;0.85;0.40;;;9.20;99.90;;;;;;5016519;28;20530;-64
2021/11/08 09:04:31;;;;;;;0.37;0.37;;;9.30;99.90;;;;;;5016481;28;20609;-64
2021/11/08 09:06:57;;;;;;;0.20;0.17;;;9.30;99.90;;;;;;5016754;28;20177;-65
2021/11/08 09:09:23;;;;;;;0.20;0.10;;;9.30;99.90;;;;;;5016613;28;20177;-65
2021/11/08 09:11:49;;;;;;;0.30;0.20;;;9.50;99.90;;;;;;5018058;28;20253;-66
2021/11/08 09:14:15;;;;;;;0.20;0.20;;;9.80;99.90;;;;;;5015905;28;20241;-66
2021/11/08 09:16:41;;;;;;;0.20;0.20;;;9.70;99.90;;;;;;5015910;28;20865;-65
2021/11/08 09:19:07;;;;;;;0.20;0.10;;;9.80;99.90;;;;;;5015437;28;20186;-67
2021/11/08 09:21:35;;;;;;;0.20;0.20;;;9.80;99.90;;;;;;5014709;28;20612;-65
2021/11/08 09:24:03;;;;;;;0.28;0.22;;;9.80;99.90;;;;;;5014782;28;20214;-64
2021/11/08 09:26:31;;;;;;;0.40;0.30;;;9.90;99.90;;;;;;4998251;28;20182;-67
2021/11/08 09:28:57;;;;;;;0.20;0.20;;;10.00;99.90;;;;;;4994776;28;20182;-66
2021/11/08 09:31:24;;;;;;;0.30;0.30;;;9.90;99.90;;;;;;4997377;28;20185;-67
2021/11/08 09:33:52;;;;;;;0.20;0.20;;;10.00;99.90;;;;;;5014832;28;20186;-67
2021/11/08 09:36:18;;;;;;;0.85;0.85;;;10.20;99.90;;;;;;5014993;28;20269;-67
2021/11/08 09:38:55;;;;;;;0.20;0.20;;;10.40;99.90;;;;;;5014364;28;20284;-66
2021/11/08 09:41:21;;;;;;;0.35;0.35;;;10.60;99.90;;;;;;5012091;28;20511;-67
2021/11/08 09:43:50;;;;;;;0.20;0.20;;;10.80;99.90;;;;;;4997102;28;20190;-67
2021/11/08 09:46:16;;;;;;;1.70;1.60;;;10.80;92.30;;;;;;5014398;28;20189;-67
2021/11/08 09:48:42;;;;;;;0.30;0.20;;;10.90;80.90;;;;;;5014544;28;20189;-67
2021/11/08 09:51:11;;;;;;;0.40;0.40;;;10.90;45.80;;;;;;5014490;28;20445;-66
2021/11/08 09:53:37;;;;;;;12.55;1.65;;;11.00;87.80;;;;;;5014305;28;20637;-67
2021/11/08 09:56:05;;;;;;;0.40;0.20;;;11.20;60.70;;;;;;5020019;28;20221;-67
2021/11/08 09:58:33;;;;;;;0.30;0.30;;;11.30;30.10;;;;;;5000618;28;20197;-67
2021/11/08 10:01:05;;;;;;;0.68;0.63;;;11.40;26.40;;;;;;5018106;28;20205;-67
2021/11/08 10:03:36;;;;;;;0.30;0.20;;;11.30;1.00;;;;;;5014686;28;20257;-63
2021/11/08 10:06:03;;;;;;;0.30;0.10;;;11.30;69.60;;;;;;5015770;28;20212;-64
2021/11/08 10:08:33;;;;;;;0.35;0.35;;;11.50;55.30;;;;;;5013853;28;20182;-65
2021/11/08 10:11:05;;;;;;;9.52;1.15;;;11.40;68.40;;;;;;5006744;28;20255;-66
2021/11/08 10:13:36;;;;;;;0.30;0.20;;;11.30;99.90;;;;;;5012027;28;20186;-64
2021/11/08 10:16:15;;;;;;;0.30;0.20;;;11.20;99.90;;;;;;5014356;28;20182;-63
2021/11/08 10:18:47;;;;;;;0.30;0.20;;;11.20;99.90;;;;;;5011531;28;20199;-66
2021/11/08 10:21:17;;;;;;;0.30;0.20;;;11.40;99.90;;;;;;5014617;28;20257;-65
2021/11/08 10:23:46;;;;;;;0.80;0.40;;;11.40;99.90;;;;;;5012674;28;20217;-64
2021/11/08 10:26:15;;;;;;;0.30;0.20;;;11.40;99.90;;;;;;4980078;28;20178;-64
2021/11/08 10:28:41;;;;;;;0.60;0.50;;;11.40;99.90;;;;;;5013752;28;20171;-64
2021/11/08 10:31:11;;;;;;;0.30;0.30;;;11.20;99.90;;;;;;5014278;28;20206;-63
2021/11/08 10:33:39;;;;;;;0.30;0.20;;;11.10;99.90;;;;;;5011733;28;20244;-64
2021/11/08 10:36:16;;;;;;;0.45;0.43;;;11.10;99.90;;;;;;5013202;28;20193;-63
2021/11/08 10:38:45;;;;;;;0.65;0.63;;;11.10;99.90;;;;;;5012446;28;20453;-63
2021/11/08 10:41:14;;;;;;;0.93;0.52;;;11.10;99.90;;;;;;5013622;28;20190;-64
2021/11/08 10:43:51;;;;;;;0.30;0.20;;;11.10;99.90;;;;;;5013668;28;20352;-63
2021/11/08 10:46:21;;;;;;;0.30;0.20;;;11.20;99.90;;;;;;5013900;28;20178;-66
2021/11/08 10:48:57;;;;;;;0.55;0.40;;;11.30;99.90;;;;;;5013879;28;20513;-66
2021/11/08 10:51:26;;;;;;;0.30;0.20;;;11.30;99.90;;;;;;5014126;28;20181;-66
2021/11/08 10:53:56;;;;;;;0.57;0.57;;;11.00;99.90;;;;;;5013994;28;20251;-63
2021/11/08 10:56:30;;;;;;;0.52;0.50;;;10.90;99.90;;;;;;5013860;28;20698;-63
2021/11/08 10:58:59;;;;;;;0.30;0.28;;;11.10;99.90;;;;;;5013723;28;20208;-63
2021/11/08 11:01:34;;;;;;;2.92;0.57;;;11.30;99.90;;;;;;4996187;28;20174;-63
2021/11/08 11:04:05;;;;;;;0.47;0.47;;;11.20;99.90;;;;;;5013558;28;20288;-63
2021/11/08 11:06:37;;;;;;;0.30;0.20;;;11.00;99.90;;;;;;5013767;28;20631;-63
2021/11/08 11:09:10;;;;;;;0.30;0.20;;;11.00;99.90;;;;;;5013595;28;20504;-63
2021/11/08 11:11:35;;;;;;;0.30;0.30;;;11.20;99.90;;;;;;5013300;28;20186;-64
2021/11/08 11:14:01;;;;;;;0.30;0.20;;;11.30;99.90;;;;;;5013619;28;20182;-63
2021/11/08 11:16:34;;;;;;;1.67;1.37;;;11.30;99.90;;;;;;5013411;28;20529;-63
2021/11/08 11:19:03;;;;;;;0.35;0.28;;;11.40;99.90;;;;;;5011791;28;20236;-63
2021/11/08 11:21:29;;;;;;;1.67;1.15;;;11.50;99.90;;;;;;5008709;28;20190;-66
2021/11/08 11:24:01;;;;;;;0.40;0.40;;;11.40;99.90;;;;;;5013209;28;20248;-67
2021/11/08 11:26:29;;;;;;;0.43;0.43;;;11.40;99.90;;;;;;4994702;28;20436;-65
2021/11/08 11:28:58;;;;;;;0.20;0.10;;;11.50;99.90;;;;;;4995699;28;20200;-64
2021/11/08 11:31:27;;;;;;;0.50;0.47;;;11.60;99.90;;;;;;5008675;28;20244;-65
2021/11/08 11:33:58;;;;;;;0.30;0.10;;;11.90;99.90;;;;;;5013417;28;20253;-65
2021/11/08 11:36:27;;;;;;;0.30;0.10;;;11.80;99.90;;;;;;5013265;28;20517;-68
2021/11/08 11:38:57;;;;;;;0.30;0.20;;;11.70;99.90;;;;;;5013190;28;20259;-65
2021/11/08 11:41:27;;;;;;;0.20;0.10;;;11.70;99.90;;;;;;5012185;28;20637;-64
2021/11/08 11:44:04;;;;;;;0.40;0.30;;;11.40;99.90;;;;;;4995399;28;20202;-64
2021/11/08 11:46:42;;;;;;;0.75;0.65;;;11.20;99.90;;;;;;5010255;28;20265;-66
2021/11/08 11:49:08;;;;;;;0.77;0.55;;;11.10;99.90;;;;;;5016228;28;20162;-66
2021/11/08 11:51:46;;;;;;;0.20;0.10;;;11.20;99.90;;;;;;4999365;28;20185;-66
2021/11/08 11:54:14;;;;;;;0.20;0.20;;;11.20;99.90;;;;;;5014556;28;20373;-67
2021/11/08 11:56:42;;;;;;;0.35;0.35;;;11.30;99.90;;;;;;5016549;28;20460;-66
2021/11/08 11:59:09;;;;;;;0.30;0.10;;;11.40;99.90;;;;;;5016070;28;20186;-67
2021/11/08 12:01:36;;;;;;;0.30;0.20;;;11.60;99.90;;;;;;5016462;28;20649;-65
2021/11/08 12:04:02;;;;;;;1.52;0.47;;;11.40;99.90;;;;;;5016449;28;20210;-65
2021/11/08 12:06:32;;;;;;;0.20;0.20;;;11.30;99.90;;;;;;5013980;28;20264;-63
2021/11/08 12:09:00;;;;;;;0.30;0.20;;;11.30;99.90;;;;;;5024274;28;20205;-63
2021/11/08 12:11:51;;;;;;;0.30;0.25;;;11.50;99.90;;;;;;5028231;28;20180;-63
2021/11/08 12:14:29;;;;;;;0.20;0.20;;;11.20;99.90;;;;;;5028420;28;20194;-63
2021/11/08 12:17:02;;;;;;;0.30;0.20;;;11.00;99.90;;;;;;5030473;28;20204;-63
2021/11/08 12:19:37;;;;;;;0.68;0.68;;;11.20;99.90;;;;;;5012060;28;20270;-63
2021/11/08 12:22:17;;;;;;;0.60;0.60;;;11.40;99.90;;;;;;5016223;28;20186;-63
2021/11/08 12:25:07;;;;;;;0.30;0.20;;;11.20;99.90;;;;;;5023698;28;20202;-63
2021/11/08 12:27:38;;;;;;;10.00;0.90;;;11.20;99.90;;;;;;5016000;28;20208;-64
2021/11/08 12:30:32;;;;;;;0.20;0.20;;;11.00;99.90;;;;;;5015785;28;20250;-65
2021/11/08 12:33:01;;;;;;;0.32;0.28;;;10.80;99.90;;;;;;5013258;28;20194;-63
2021/11/08 12:35:36;;;;;;;0.30;0.22;;;10.90;99.90;;;;;;5015995;28;20269;-65
2021/11/08 12:38:21;;;;;;;0.20;0.20;;;10.90;99.90;;;;;;5015899;28;20193;-64
2021/11/08 12:40:48;;;;;;;0.40;0.30;;;11.00;99.90;;;;;;5023357;28;20331;-66
2021/11/08 12:43:28;;;;;;;0.20;0.20;;;11.00;99.90;;;;;;4996263;28;20199;-67
2021/11/08 12:45:54;;;;;;;0.30;0.30;;;11.00;99.90;;;;;;4996064;28;20320;-67
2021/11/08 12:48:19;;;;;;;0.30;0.20;;;10.90;99.90;;;;;;4996170;28;20266;-66
2021/11/08 12:50:53;;;;;;;0.30;0.10;;;11.10;99.90;;;;;;4996272;28;20179;-65
2021/11/08 12:53:31;;;;;;;0.20;0.20;;;11.20;99.90;;;;;;4996658;28;20190;-67
2021/11/08 12:56:01;;;;;;;0.20;0.20;;;11.10;99.90;;;;;;4996534;28;20183;-66
2021/11/08 12:58:33;;;;;;;1.00;0.98;;;11.20;99.90;;;;;;4995044;28;20206;-68
2021/11/08 13:01:00;;;;;;;0.30;0.20;;;11.40;99.90;;;;;;4995906;28;20261;-67
2021/11/08 13:03:36;;;;;;;0.30;0.20;;;11.30;99.90;;;;;;4996058;28;20203;-67
2021/11/08 13:06:04;;;;;;;0.30;0.25;;;11.10;99.90;;;;;;4996398;28;20182;-67
2021/11/08 13:08:31;;;;;;;0.40;0.40;;;11.10;99.90;;;;;;4978860;28;20183;-67
2021/11/08 13:11:09;;;;;;;0.32;0.32;;;11.20;99.90;;;;;;4995929;28;20171;-66
2021/11/08 13:13:36;;;;;;;0.20;0.10;;;11.10;99.90;;;;;;4995853;28;20624;-67
2021/11/08 13:16:07;;;;;;;0.30;0.20;;;11.10;99.90;;;;;;5002902;28;20313;-67
2021/11/08 13:18:39;;;;;;;1.55;0.50;;;11.10;99.90;;;;;;5015166;28;20189;-63
2021/11/08 13:21:05;;;;;;;0.30;0.20;;;11.00;99.90;;;;;;4997681;28;20210;-66
2021/11/08 13:23:34;;;;;;;0.30;0.20;;;10.90;99.90;;;;;;5015081;28;20691;-67
2021/11/08 13:26:00;;;;;;;0.38;0.38;;;11.00;99.90;;;;;;5015370;28;20214;-67
2021/11/08 13:28:29;;;;;;;0.30;0.20;;;11.10;99.90;;;;;;4997788;28;20634;-67
2021/11/08 13:31:01;;;;;;;0.30;0.25;;;11.10;99.90;;;;;;5015039;28;20178;-67
2021/11/08 13:33:30;;;;;;;0.20;0.20;;;10.90;99.90;;;;;;5015020;28;20255;-67
2021/11/08 13:35:57;;;;;;;0.75;0.75;;;10.90;99.90;;;;;;5015422;28;20190;-67
2021/11/08 13:38:31;;;;;;;0.20;0.20;;;10.90;99.90;;;;;;5014886;28;20293;-67
2021/11/08 13:41:05;;;;;;;3.28;3.00;;;11.00;99.90;;;;;;4997689;28;20196;-66
2021/11/08 13:43:43;;;;;;;0.20;0.20;;;10.90;99.90;;;;;;5014981;28;20275;-67
2021/11/08 13:46:18;;;;;;;0.25;0.20;;;10.90;99.90;;;;;;5015162;28;20229;-67
2021/11/08 13:48:50;;;;;;;0.93;0.82;;;11.00;99.90;;;;;;5014726;28;20197;-67
2021/11/08 13:51:18;;;;;;;0.30;0.30;;;10.90;99.90;;;;;;5014569;28;20236;-67
2021/11/08 13:53:49;;;;;;;0.20;0.20;;;10.90;99.90;;;;;;5014617;28;20666;-67
2021/11/08 13:56:16;;;;;;;0.20;0.20;;;10.80;99.90;;;;;;5014852;28;20193;-66
2021/11/08 13:58:51;;;;;;;0.40;0.40;;;10.90;99.90;;;;;;5014532;28;20704;-64
2021/11/08 14:01:18;;;;;;;0.30;0.20;;;10.80;99.90;;;;;;5015021;28;20178;-64
2021/11/08 14:03:46;;;;;;;0.93;0.55;;;11.00;99.90;;;;;;5015563;28;20615;-64
2021/11/08 14:06:14;;;;;;;0.40;0.40;;;11.00;99.90;;;;;;4998306;28;20182;-64
2021/11/08 14:08:45;;;;;;;0.30;0.20;;;11.00;99.90;;;;;;5014764;28;20495;-65
2021/11/08 14:11:12;;;;;;;7.82;0.77;;;11.00;99.90;;;;;;5015065;28;20178;-67
2021/11/08 14:13:40;;;;;;;0.75;0.68;;;11.00;99.90;;;;;;5014658;28;20193;-65
2021/11/08 14:16:12;;;;;;;0.30;0.30;;;11.00;99.90;;;;;;5022789;28;20185;-65
2021/11/08 14:18:38;;;;;;;0.20;0.20;;;10.90;99.90;;;;;;5014579;28;20273;-64
2021/11/08 14:21:13;;;;;;;0.60;0.60;;;10.90;99.90;;;;;;5014841;28;20271;-65
2021/11/08 14:23:42;;;;;;;0.20;0.10;;;10.90;99.90;;;;;;5013999;28;20472;-66
2021/11/08 14:26:19;;;;;;;0.30;0.30;;;11.00;99.90;;;;;;4996859;28;20174;-65
2021/11/08 14:28:47;;;;;;;0.50;0.50;;;10.90;99.90;;;;;;5015811;28;20174;-65
2021/11/08 14:31:26;;;;;;;0.77;0.73;;;10.70;99.90;;;;;;5014692;28;20627;-66